Bluefield, WV

23:36 EDT le 26 Mars 2015 (GMT -0400)
South Bluefield | | Change Station
CLOSE
Current Station
Stations météorologiques personnelles
Location: Bluefield, WV
Altitude: 2700 ft
Stations météo à proximité

Alt. 2700 ft 37.26 °N, 81.20 °W | Updated 2 seconds ago

Light Rain
Pluie fine
42.6 ° F
Paraît 43 ° F
N
0.0
Vent Variable Vent de ESE
Gusts 3.0 mph

Aujourd'hui
Haut(e) -- | Bas -- ° F
--% Risque de précip.
Hier
Haut(e) -- | Bas -- ° F
Precip. -- pouce
7:19 AM 7:41 PM
Lune montante, 48% visible
Pression 29.79 pouce
Visibilité 6.0 Miles terrestres
Nuages Couvert 800 ft
Refroidissement éolien 43 ° F
Point de rosée 40 ° F
Humidité 92%
Précipitations 0.11 pouce
Profondeur de la couche neigeuse Non disponible.
UV 0 sur 12
Pollen 9.80 sur 12
Qualité de l'air Non disponible.
Flu Activity Non disponible.
METAR KBLF 270252Z AUTO 35005KT 6SM -RA OVC008 07/04 A2984 RMK AO2 SLP088 P0004 60006 T00720044 53017

More Conditions Fewer Conditions

Pression 29.79 pouce
Visibilité 6.0 Miles terrestres
Nuages Couvert 800 ft
Refroidissement éolien 43 ° F
Point de rosée 40 ° F
Humidité 92%
Précipitations 0.11 pouce
Profondeur de la couche neigeuse Non disponible.
UV 0 sur 12
Pollen 9.80 sur 12
Qualité de l'air Non disponible.
Flu Activity Non disponible.
METAR KBLF 270252Z AUTO 35005KT 6SM -RA OVC008 07/04 A2984 RMK AO2 SLP088 P0004 60006 T00720044 53017

More Conditions Fewer Conditions

10-Day Weather Forecast

Almanac

Astronomie

Mar. 26, 2015 Lever Coucher
Temps réel
Crépuscule civil
Crépuscule nautique
Crépuscule astronomique
Lune
Durée de lumière visible
Longueur du jour
Tomorrow will be .
, % of the Moon is Illuminated

Extrêmes aujourd'hui

State Highs State Lows

Community

WunderPhotos

Upload Photos

1,808,697 Photos téléchargées !

WunderBlogs® & News

Nearby

Qualité de l'air

  Qualité de l'air Indice de la qualité de l'air Polluant
Not available.

Épaisseur de neige

Station Depth Altitude

Activité sismique

Ville Distance Mag. Time & Date
Minimum magnitude displayed is 2.5.

Températures des eaux côtières

Lieu Température

Stations

Stations météo à proximité

Emplacement de la station Température Refroidissement éolien Point de rosée Humidité Vent Precip. Alt. Mise à jour Type